createdAt,value
2018-08-09T00:01:07.428Z,67.38
2018-08-09T00:03:36.171Z,67.25
2018-08-09T00:06:04.998Z,67.13
2018-08-09T00:08:33.768Z,66.72
2018-08-09T00:11:02.516Z,66.59
2018-08-09T00:13:31.150Z,66.88
2018-08-09T00:15:59.926Z,67.11
2018-08-09T00:18:28.681Z,67.39
2018-08-09T00:20:58.108Z,67.33
2018-08-09T00:23:27.039Z,67.20
2018-08-09T00:25:55.777Z,67.19
2018-08-09T00:28:24.475Z,67.52
2018-08-09T00:30:53.306Z,67.49
2018-08-09T00:33:22.034Z,67.55
2018-08-09T00:35:50.889Z,67.45
2018-08-09T00:38:19.590Z,67.76
2018-08-09T00:40:48.322Z,67.85
2018-08-09T00:43:17.146Z,67.90
2018-08-09T00:45:46.009Z,68.08
2018-08-09T00:48:15.029Z,67.94
2018-08-09T00:50:43.778Z,68.32
2018-08-09T00:53:12.489Z,68.64
2018-08-09T00:55:41.403Z,68.50
2018-08-09T00:58:10.192Z,68.76
2018-08-09T01:00:38.926Z,68.33
2018-08-09T01:03:07.615Z,68.23
2018-08-09T01:05:36.474Z,68.40
2018-08-09T01:08:05.117Z,67.88
2018-08-09T01:10:33.773Z,67.83
2018-08-09T01:13:02.401Z,67.82
2018-08-09T01:15:31.081Z,67.47
2018-08-09T01:17:59.833Z,67.04
2018-08-09T01:20:28.471Z,68.03
2018-08-09T01:22:57.457Z,68.07
2018-08-09T01:25:26.617Z,68.62
2018-08-09T01:27:55.382Z,69.28
2018-08-09T01:30:24.662Z,69.83
2018-08-09T01:32:53.548Z,70.24
2018-08-09T01:35:22.194Z,70.82
2018-08-09T01:37:50.894Z,70.72
2018-08-09T01:40:19.555Z,70.96
2018-08-09T01:42:59.477Z,70.79
2018-08-09T01:45:28.110Z,70.64
2018-08-09T01:47:56.852Z,70.49
2018-08-09T01:50:25.687Z,70.40
2018-08-09T01:52:54.377Z,70.60
2018-08-09T01:55:23.302Z,70.66
2018-08-09T01:57:52.098Z,70.94
2018-08-09T02:00:20.931Z,70.96
2018-08-09T02:02:49.654Z,71.23
2018-08-09T02:05:18.322Z,71.14
2018-08-09T02:07:47.241Z,70.75
2018-08-09T02:10:16.082Z,70.54
2018-08-09T02:12:44.881Z,71.17
2018-08-09T02:15:13.647Z,71.13
2018-08-09T02:17:42.300Z,70.87
2018-08-09T02:20:11.284Z,70.99
2018-08-09T02:22:39.922Z,70.92
2018-08-09T02:25:08.605Z,70.87
2018-08-09T02:27:37.250Z,70.59
2018-08-09T02:30:07.370Z,70.30
2018-08-09T02:32:36.118Z,70.40
2018-08-09T02:35:05.122Z,70.75
2018-08-09T02:37:33.813Z,70.69
2018-08-09T02:40:02.730Z,70.61
2018-08-09T02:42:31.577Z,70.34
2018-08-09T02:45:00.348Z,70.28
2018-08-09T02:47:29.518Z,70.61
2018-08-09T02:49:58.518Z,70.66
2018-08-09T02:52:27.983Z,70.64
2018-08-09T02:54:57.493Z,70.71
2018-08-09T02:57:26.969Z,70.71
2018-08-09T02:59:56.514Z,70.80
2018-08-09T03:02:25.218Z,70.66
2018-08-09T03:04:54.190Z,70.73
2018-08-09T03:07:23.004Z,70.73
2018-08-09T03:09:52.227Z,70.83
2018-08-09T03:12:21.117Z,71.29
2018-08-09T03:14:50.090Z,71.03
2018-08-09T03:17:18.790Z,70.88
2018-08-09T03:19:47.506Z,71.07
2018-08-09T03:22:16.546Z,71.07
2018-08-09T03:24:45.363Z,71.07
2018-08-09T03:27:14.197Z,71.11
2018-08-09T03:29:43.128Z,71.53
2018-08-09T03:32:11.881Z,71.30
2018-08-09T03:34:40.570Z,71.20
2018-08-09T03:37:09.586Z,70.93
2018-08-09T03:39:38.361Z,70.71
2018-08-09T03:42:07.154Z,70.92
2018-08-09T03:44:35.954Z,71.03
2018-08-09T03:47:04.713Z,71.34
2018-08-09T03:49:33.483Z,71.46
2018-08-09T03:52:02.194Z,71.67
2018-08-09T03:54:30.867Z,71.60
2018-08-09T03:56:59.674Z,71.03
2018-08-09T03:59:28.410Z,71.03
2018-08-09T04:01:57.289Z,71.08
2018-08-09T04:04:25.979Z,70.99
2018-08-09T04:06:54.981Z,70.80
2018-08-09T04:09:23.725Z,70.76
2018-08-09T04:11:52.468Z,70.69
2018-08-09T04:14:21.430Z,70.40
2018-08-09T04:16:50.095Z,70.74
2018-08-09T04:19:18.759Z,70.47
2018-08-09T04:21:47.500Z,70.41
2018-08-09T04:24:16.365Z,70.14
2018-08-09T04:26:45.172Z,70.51
2018-08-09T04:29:13.909Z,70.72
2018-08-09T04:31:42.738Z,70.83
2018-08-09T04:34:11.434Z,70.65
2018-08-09T04:36:40.077Z,70.51
2018-08-09T04:39:09.969Z,70.87
2018-08-09T04:41:38.684Z,70.84
2018-08-09T04:44:07.709Z,70.83
2018-08-09T04:46:36.482Z,70.76
2018-08-09T04:49:05.374Z,70.76
2018-08-09T04:51:34.118Z,70.52
2018-08-09T04:54:02.846Z,70.39
2018-08-09T04:56:31.672Z,69.85
2018-08-09T04:59:00.458Z,69.54
2018-08-09T05:01:29.198Z,69.61
2018-08-09T05:03:57.910Z,69.49
2018-08-09T05:06:26.635Z,69.35
2018-08-09T05:08:55.403Z,69.18
2018-08-09T05:11:24.202Z,69.49
2018-08-09T05:13:52.995Z,69.12
2018-08-09T05:16:21.773Z,68.99
2018-08-09T05:18:50.590Z,68.78
2018-08-09T05:21:19.522Z,68.39
2018-08-09T05:23:48.462Z,68.12
2018-08-09T05:26:17.193Z,67.98
2018-08-09T05:28:46.028Z,67.56
2018-08-09T05:31:14.769Z,67.45
2018-08-09T05:33:43.518Z,67.19
2018-08-09T05:36:12.281Z,67.33
2018-08-09T05:38:41.038Z,67.06
2018-08-09T05:41:10.077Z,66.84
2018-08-09T05:43:38.733Z,66.79
2018-08-09T05:46:07.662Z,66.44
2018-08-09T05:48:36.434Z,66.20
2018-08-09T05:51:05.240Z,65.53
2018-08-09T05:53:34.222Z,65.54
2018-08-09T05:56:02.982Z,65.32
2018-08-09T09:36:51.053Z,40.84
2018-08-09T09:39:19.807Z,41.11
2018-08-09T09:41:48.636Z,41.40
2018-08-09T09:44:17.466Z,41.06
2018-08-09T09:46:46.286Z,40.61
2018-08-09T09:49:15.261Z,42.01
2018-08-09T09:51:43.999Z,40.73
2018-08-09T09:54:12.949Z,40.03
2018-08-09T09:56:41.674Z,40.16
2018-08-09T09:59:10.482Z,39.54
2018-08-09T10:01:39.349Z,39.00
2018-08-09T10:04:13.169Z,39.61
2018-08-09T10:06:42.261Z,38.04
2018-08-09T10:09:12.201Z,38.64
2018-08-09T10:11:41.240Z,37.94
2018-08-09T10:14:10.008Z,37.68
2018-08-09T10:16:38.784Z,37.91
2018-08-09T10:19:07.704Z,37.18
2018-08-09T10:21:37.045Z,37.71
2018-08-09T10:24:05.852Z,37.33
2018-08-09T10:26:34.893Z,37.77
2018-08-09T10:29:03.703Z,38.16
2018-08-09T10:31:33.863Z,37.15
2018-08-09T10:34:02.905Z,36.63
2018-08-09T10:36:31.796Z,36.41
2018-08-09T10:39:00.748Z,35.80
2018-08-09T10:41:29.563Z,37.01
2018-08-09T10:43:58.211Z,36.35
2018-08-09T10:46:27.021Z,36.38
2018-08-09T10:48:55.791Z,36.74
2018-08-09T10:51:25.022Z,36.48
2018-08-09T10:53:53.876Z,37.04
2018-08-09T10:56:24.901Z,36.43
2018-08-09T10:58:53.687Z,35.42
2018-08-09T11:01:22.523Z,35.95
2018-08-09T11:03:51.201Z,35.25
2018-08-09T11:06:20.157Z,34.67
2018-08-09T11:08:48.951Z,35.23
2018-08-09T11:11:17.652Z,34.94
2018-08-09T11:13:46.741Z,34.77
2018-08-09T11:16:16.299Z,34.26
2018-08-09T11:18:45.777Z,34.44
2018-08-09T11:21:15.105Z,34.39
2018-08-09T11:23:43.935Z,35.69
2018-08-09T11:26:12.648Z,35.11
2018-08-09T11:28:41.409Z,35.41
2018-08-09T11:31:10.468Z,35.00
2018-08-09T11:33:39.446Z,35.48
2018-08-09T11:36:08.171Z,35.49
2018-08-09T11:38:36.901Z,35.43
2018-08-09T11:41:05.593Z,34.34
2018-08-09T11:43:34.361Z,33.36
2018-08-09T11:46:03.293Z,34.00
2018-08-09T11:48:32.477Z,33.32
2018-08-09T11:51:01.397Z,32.96
2018-08-09T11:53:30.085Z,33.28
2018-08-09T11:55:58.843Z,32.97
2018-08-09T11:58:27.857Z,32.46
2018-08-09T12:00:56.497Z,31.80
2018-08-09T12:03:25.357Z,31.46
2018-08-09T12:05:54.560Z,30.92
2018-08-09T12:08:23.432Z,29.71
2018-08-09T12:10:52.311Z,29.68
2018-08-09T12:13:21.302Z,28.29
2018-08-09T12:15:51.251Z,28.25
2018-08-09T12:18:20.127Z,27.81
2018-08-09T12:20:49.009Z,28.06
2018-08-09T12:23:17.753Z,26.78
2018-08-09T12:25:46.725Z,26.42
2018-08-09T12:28:15.469Z,26.95
2018-08-09T12:30:44.173Z,26.34
2018-08-09T12:33:13.151Z,25.60
2018-08-09T12:35:42.665Z,26.14
2018-08-09T12:38:11.442Z,25.68
2018-08-09T12:40:40.194Z,25.76
2018-08-09T12:43:08.930Z,24.23
2018-08-09T12:45:37.981Z,23.97
2018-08-09T12:48:07.272Z,24.67
2018-08-09T12:50:36.443Z,24.09
2018-08-09T12:53:05.861Z,23.64
2018-08-09T12:55:34.801Z,24.74
2018-08-09T12:58:03.622Z,24.16
2018-08-09T13:00:32.479Z,22.99
2018-08-09T13:03:01.158Z,21.58
2018-08-09T13:05:30.067Z,21.23
2018-08-09T13:07:58.945Z,21.46
2018-08-09T13:10:27.657Z,21.72
2018-08-09T13:12:56.473Z,20.47
2018-08-09T13:15:26.382Z,21.48
2018-08-09T13:17:55.239Z,21.59
2018-08-09T13:20:24.160Z,21.08
2018-08-09T13:22:52.889Z,21.63
2018-08-09T13:25:21.749Z,21.18
2018-08-09T13:27:50.604Z,21.35
2018-08-09T13:30:19.381Z,20.90
2018-08-09T13:32:48.065Z,20.38
2018-08-09T13:35:16.799Z,20.96
2018-08-09T13:37:45.686Z,20.28
2018-08-09T13:40:14.480Z,20.12
2018-08-09T13:42:43.237Z,19.89
2018-08-09T13:45:15.023Z,19.97
2018-08-09T13:47:43.978Z,19.22
2018-08-09T13:50:13.273Z,19.95
2018-08-09T13:52:42.748Z,20.42
2018-08-09T13:55:13.806Z,20.44
2018-08-09T13:57:42.567Z,19.91
2018-08-09T14:00:12.941Z,18.96
2018-08-09T14:02:43.585Z,19.21
2018-08-09T14:05:12.504Z,19.56
2018-08-09T14:07:43.063Z,20.94
2018-08-09T14:10:12.341Z,21.83
2018-08-09T14:12:42.141Z,23.05
2018-08-09T14:15:12.518Z,23.72
2018-08-09T14:17:41.221Z,24.23
2018-08-09T14:20:15.675Z,25.37
2018-08-09T14:22:44.462Z,26.07
2018-08-09T14:25:13.762Z,25.18
2018-08-09T14:27:42.773Z,24.87
2018-08-09T14:30:13.703Z,24.81
2018-08-09T14:32:43.125Z,25.19
2018-08-09T14:35:13.581Z,25.67
2018-08-09T14:37:42.974Z,25.99
2018-08-09T14:40:12.531Z,25.06
2018-08-09T14:42:41.398Z,24.37
2018-08-09T14:45:15.829Z,24.63
2018-08-09T14:47:44.824Z,25.78
2018-08-09T14:50:13.789Z,24.85
2018-08-09T14:52:43.023Z,25.27
2018-08-09T14:55:13.380Z,24.96
2018-08-09T14:57:43.088Z,25.09
2018-08-09T15:00:16.485Z,25.23
2018-08-09T15:02:46.294Z,26.02
2018-08-09T15:05:16.521Z,25.92
2018-08-09T15:07:46.098Z,25.59
2018-08-09T15:10:16.278Z,24.73
2018-08-09T15:12:45.455Z,25.87
2018-08-09T15:15:14.481Z,27.06
2018-08-09T15:17:43.276Z,26.72
2018-08-09T15:20:14.184Z,26.70
2018-08-09T15:22:43.697Z,26.37
2018-08-09T15:25:12.927Z,25.82
2018-08-09T15:27:41.722Z,25.51
2018-08-09T15:30:16.690Z,25.62
2018-08-09T15:32:45.563Z,23.94
2018-08-09T15:35:15.201Z,23.83
2018-08-09T15:37:44.275Z,23.64
2018-08-09T15:40:13.664Z,24.40
2018-08-09T15:42:42.576Z,24.77
2018-08-09T15:45:13.391Z,25.67
2018-08-09T15:47:43.084Z,32.77
2018-08-09T15:50:17.445Z,34.73
2018-08-09T15:52:46.864Z,35.69
2018-08-09T15:55:16.917Z,36.70
2018-08-09T15:57:45.996Z,38.67
2018-08-09T16:00:18.842Z,39.19
2018-08-09T16:02:47.856Z,39.69
2018-08-09T16:05:16.913Z,39.73
2018-08-09T16:07:46.134Z,39.96
2018-08-09T16:10:16.092Z,40.46
2018-08-09T16:12:45.899Z,40.49
2018-08-09T16:15:17.305Z,41.16
2018-08-09T16:17:47.452Z,41.07
2018-08-09T16:20:16.450Z,41.44
2018-08-09T16:22:46.125Z,41.71
2018-08-09T16:25:18.325Z,41.43
2018-08-09T16:27:47.709Z,41.68
2018-08-09T16:30:23.150Z,41.32
2018-08-09T16:32:52.158Z,41.81
2018-08-09T16:35:21.374Z,41.46
2018-08-09T16:37:50.517Z,40.95
2018-08-09T16:40:21.630Z,40.96
2018-08-09T16:42:50.377Z,40.76
2018-08-09T16:45:20.431Z,40.90
2018-08-09T16:47:49.913Z,41.15
2018-08-09T16:50:20.871Z,40.89
2018-08-09T16:52:50.771Z,40.91
2018-08-09T16:55:20.930Z,41.01
2018-08-09T16:57:49.689Z,40.59
2018-08-09T17:00:20.929Z,40.99
2018-08-09T17:02:50.144Z,41.84
2018-08-09T17:05:21.386Z,41.60
2018-08-09T17:07:50.749Z,40.87
2018-08-09T17:10:21.712Z,40.86
2018-08-09T17:12:50.625Z,41.13
2018-08-09T17:15:21.677Z,40.80
2018-08-09T17:17:50.755Z,40.48
2018-08-09T17:20:22.979Z,40.61
2018-08-09T17:22:51.819Z,40.51
2018-08-09T17:25:20.791Z,40.66
2018-08-09T17:27:50.177Z,40.56
2018-08-09T17:30:21.933Z,40.29
2018-08-09T17:32:50.749Z,40.53
2018-08-09T17:35:20.268Z,40.13
